createdAt,value
2023-02-15T00:00:08.419Z,17.99
2023-02-15T00:01:08.528Z,18.00
2023-02-15T00:02:08.580Z,17.98
2023-02-15T00:03:08.632Z,18.00
2023-02-15T00:04:08.641Z,18.01
2023-02-15T00:05:08.691Z,18.00
2023-02-15T00:06:08.768Z,17.98
2023-02-15T00:07:08.813Z,18.02
2023-02-15T00:08:08.867Z,17.99
2023-02-15T00:09:08.934Z,18.01
2023-02-15T00:10:08.960Z,18.00
2023-02-15T00:11:09.018Z,18.02
2023-02-15T00:12:09.071Z,18.03
2023-02-15T00:13:09.201Z,17.97
2023-02-15T00:14:09.237Z,18.02
2023-02-15T00:15:09.301Z,18.00
2023-02-15T00:16:09.359Z,18.02
2023-02-15T00:17:09.361Z,17.99
2023-02-15T00:18:09.432Z,17.98
2023-02-15T00:19:09.506Z,17.98
2023-02-15T00:20:09.558Z,18.00
2023-02-15T00:21:09.601Z,17.98
2023-02-15T00:22:09.659Z,18.00
2023-02-15T00:23:09.693Z,17.98
2023-02-15T00:24:09.735Z,17.97
2023-02-15T00:25:09.825Z,18.01
2023-02-15T00:26:09.893Z,18.02
2023-02-15T00:27:09.914Z,17.98
2023-02-15T00:28:09.978Z,17.97
2023-02-15T00:29:10.044Z,17.99
2023-02-15T00:30:10.111Z,18.00
2023-02-15T00:31:10.192Z,18.04
2023-02-15T00:32:10.140Z,18.02
2023-02-15T00:33:10.218Z,18.01
2023-02-15T00:34:10.299Z,18.00
2023-02-15T00:35:10.311Z,18.00
2023-02-15T00:36:10.368Z,18.00
2023-02-15T00:37:10.396Z,18.02
2023-02-15T00:38:10.487Z,17.98
2023-02-15T00:39:10.533Z,18.03
2023-02-15T00:40:10.602Z,18.01
2023-02-15T00:41:10.759Z,18.01
2023-02-15T00:42:10.698Z,18.03
2023-02-15T00:43:10.715Z,18.04
2023-02-15T00:44:10.796Z,18.04
2023-02-15T00:45:10.843Z,18.01
2023-02-15T00:46:10.935Z,17.98
2023-02-15T00:47:10.954Z,17.99
2023-02-15T00:48:11.070Z,17.97
2023-02-15T00:49:11.042Z,18.01
2023-02-15T00:50:11.079Z,18.00
2023-02-15T00:51:11.138Z,17.98
2023-02-15T00:52:11.194Z,17.98
2023-02-15T00:53:11.295Z,17.97
2023-02-15T00:54:11.338Z,17.98
2023-02-15T00:55:11.377Z,18.00
2023-02-15T00:56:11.438Z,18.01
2023-02-15T00:57:11.478Z,18.00
2023-02-15T00:58:11.547Z,17.98
2023-02-15T00:59:11.594Z,17.97
2023-02-15T01:00:11.621Z,17.99
2023-02-15T01:01:11.779Z,17.99
2023-02-15T01:02:11.734Z,17.96
2023-02-15T01:03:11.780Z,17.98
2023-02-15T01:04:11.903Z,17.96
2023-02-15T01:05:11.904Z,17.95
2023-02-15T01:06:11.967Z,17.95
2023-02-15T01:07:12.078Z,17.95
2023-02-15T01:08:12.064Z,17.92
2023-02-15T01:09:12.107Z,17.92
2023-02-15T01:10:12.148Z,17.95
2023-02-15T01:11:12.232Z,17.97
2023-02-15T01:12:12.268Z,17.96
2023-02-15T01:13:12.315Z,17.94
2023-02-15T01:14:12.345Z,17.94
2023-02-15T01:15:12.454Z,17.94
2023-02-15T01:16:12.484Z,17.92
2023-02-15T01:17:12.552Z,17.95
2023-02-15T01:18:12.531Z,17.92
2023-02-15T01:19:12.572Z,17.91
2023-02-15T01:20:12.621Z,17.95
2023-02-15T01:21:12.721Z,17.92
2023-02-15T01:22:12.734Z,17.94
2023-02-15T01:23:12.816Z,17.95
2023-02-15T01:24:12.878Z,17.99
2023-02-15T01:25:12.924Z,17.96
2023-02-15T01:26:12.965Z,17.94
2023-02-15T01:27:13.019Z,17.94
2023-02-15T01:28:13.058Z,17.91
2023-02-15T01:29:13.130Z,17.90
2023-02-15T01:30:13.218Z,17.91
2023-02-15T01:31:13.356Z,17.92
2023-02-15T01:32:13.328Z,17.93
2023-02-15T01:33:13.317Z,17.90
2023-02-15T01:34:13.401Z,17.91
2023-02-15T01:35:13.504Z,17.92
2023-02-15T01:36:13.536Z,17.92
2023-02-15T01:37:13.567Z,17.94
2023-02-15T01:38:13.631Z,17.94
2023-02-15T01:39:13.695Z,17.94
2023-02-15T01:40:13.748Z,17.91
2023-02-15T01:41:13.793Z,17.91
2023-02-15T01:42:13.838Z,17.91
2023-02-15T01:56:14.651Z,17.91
2023-02-15T01:57:14.710Z,17.89
2023-02-15T01:58:14.754Z,17.83
2023-02-15T01:59:14.828Z,17.85
2023-02-15T02:00:14.884Z,17.85
2023-02-15T02:01:14.967Z,17.85
2023-02-15T02:02:14.998Z,17.88
2023-02-15T02:03:15.033Z,17.88
2023-02-15T02:04:15.076Z,17.87
2023-02-15T02:05:15.140Z,17.87
2023-02-15T02:06:15.205Z,17.86
2023-02-15T02:07:15.262Z,17.87
2023-02-15T02:08:15.318Z,17.86
2023-02-15T02:09:15.320Z,17.88
2023-02-15T02:10:15.418Z,17.84
2023-02-15T02:11:15.438Z,17.86
2023-02-15T02:12:15.535Z,17.86
2023-02-15T02:13:15.571Z,17.88
2023-02-15T02:14:15.653Z,17.87
2023-02-15T02:15:15.691Z,17.88
2023-02-15T02:16:15.756Z,17.86
2023-02-15T02:17:15.819Z,17.82
2023-02-15T02:18:15.879Z,17.76
2023-02-15T02:19:15.897Z,17.82
2023-02-15T02:20:15.955Z,17.81
2023-02-15T02:21:16.006Z,17.79
2023-02-15T02:22:16.062Z,17.83
2023-02-15T02:23:16.157Z,17.82
2023-02-15T02:24:16.162Z,17.82
2023-02-15T02:25:16.210Z,17.81
2023-02-15T02:26:16.289Z,17.78
2023-02-15T02:27:16.351Z,17.81
2023-02-15T02:28:16.388Z,17.83
2023-02-15T02:29:16.417Z,17.78
2023-02-15T02:30:16.571Z,17.78
2023-02-15T02:31:16.642Z,17.79
2023-02-15T02:32:16.626Z,17.81
2023-02-15T02:33:16.651Z,17.81
2023-02-15T02:34:16.700Z,17.84
2023-02-15T02:35:16.740Z,17.84
2023-02-15T02:36:16.793Z,17.84
2023-02-15T02:37:16.880Z,17.84
2023-02-15T02:38:16.925Z,17.82
2023-02-15T02:39:16.972Z,17.82
2023-02-15T02:40:17.009Z,17.80
2023-02-15T02:41:17.059Z,17.81
2023-02-15T02:42:17.135Z,17.80
2023-02-15T02:43:17.175Z,17.79
2023-02-15T02:44:17.214Z,17.78
2023-02-15T02:45:17.272Z,17.78
2023-02-15T02:46:17.369Z,17.79
2023-02-15T02:47:17.369Z,17.78
2023-02-15T02:48:17.459Z,17.78
2023-02-15T02:49:17.528Z,17.81
2023-02-15T02:50:17.575Z,17.80
2023-02-15T02:51:17.651Z,17.83
2023-02-15T02:52:17.669Z,17.82
2023-02-15T02:53:17.734Z,17.82
2023-02-15T02:54:17.786Z,17.81
2023-02-15T02:55:17.843Z,17.83
2023-02-15T02:56:17.879Z,17.79
2023-02-15T02:57:17.933Z,17.80
2023-02-15T02:58:18.054Z,17.80
2023-02-15T02:59:18.083Z,17.81
2023-02-15T03:00:18.697Z,17.78
2023-02-15T03:01:18.167Z,17.79
2023-02-15T03:02:18.198Z,17.81
2023-02-15T03:03:18.282Z,17.81
2023-02-15T03:04:18.309Z,17.84
2023-02-15T03:05:18.368Z,17.81
2023-02-15T03:06:18.411Z,17.81
2023-02-15T03:07:18.466Z,17.77
2023-02-15T03:08:18.526Z,17.82
2023-02-15T03:09:18.595Z,17.79
2023-02-15T03:10:18.647Z,17.81
2023-02-15T03:11:18.712Z,17.80
2023-02-15T03:12:18.773Z,17.79
2023-02-15T03:13:18.828Z,17.79
2023-02-15T03:14:18.882Z,17.78
2023-02-15T03:15:18.937Z,17.79
2023-02-15T03:16:19.014Z,17.78
2023-02-15T03:17:19.067Z,17.79
2023-02-15T03:18:19.118Z,17.77
2023-02-15T03:19:19.128Z,17.76
2023-02-15T03:20:19.170Z,17.78
2023-02-15T03:21:19.243Z,17.76
2023-02-15T03:22:19.323Z,17.78
2023-02-15T03:23:19.347Z,17.77
2023-02-15T03:24:19.375Z,17.79
2023-02-15T03:25:19.451Z,17.79
2023-02-15T03:26:19.502Z,17.79
2023-02-15T03:27:19.572Z,17.79
2023-02-15T03:28:19.603Z,17.78
2023-02-15T03:29:19.658Z,17.77
2023-02-15T03:30:19.821Z,17.77
2023-02-15T03:31:19.850Z,17.78
2023-02-15T03:32:19.847Z,17.78
2023-02-15T03:33:19.859Z,17.77
2023-02-15T03:34:19.884Z,17.76
2023-02-15T03:35:19.997Z,17.77
2023-02-15T03:36:20.031Z,17.74
2023-02-15T03:37:20.064Z,17.76
2023-02-15T03:38:20.128Z,17.77
2023-02-15T03:39:20.206Z,17.77
2023-02-15T03:40:20.242Z,17.79
2023-02-15T03:41:20.291Z,17.76
2023-02-15T03:42:20.375Z,17.79
2023-02-15T03:43:20.449Z,17.77
2023-02-15T03:44:20.477Z,17.79
2023-02-15T03:45:20.513Z,17.77
2023-02-15T03:46:20.587Z,17.77
2023-02-15T03:47:20.623Z,17.79
2023-02-15T03:48:20.703Z,17.78
2023-02-15T03:49:20.704Z,17.81
2023-02-15T03:50:20.765Z,17.81
2023-02-15T03:51:20.828Z,17.83
2023-02-15T03:52:20.891Z,17.79
2023-02-15T03:53:21.957Z,17.81
2023-02-15T03:54:20.989Z,17.80
2023-02-15T03:55:21.004Z,17.72
2023-02-15T03:56:21.056Z,17.68
2023-02-15T03:57:21.122Z,17.73
2023-02-15T03:58:21.154Z,17.75
2023-02-15T03:59:21.244Z,17.66
2023-02-15T04:00:21.221Z,17.67
2023-02-15T04:01:21.293Z,17.57
2023-02-15T04:02:21.354Z,17.54
2023-02-15T04:03:21.399Z,17.51
2023-02-15T04:04:21.428Z,17.48
2023-02-15T04:05:21.478Z,17.47
2023-02-15T04:06:21.485Z,17.45
2023-02-15T04:07:21.550Z,17.44
2023-02-15T04:08:21.605Z,17.42
2023-02-15T04:09:21.636Z,17.41
2023-02-15T04:10:21.721Z,17.39
2023-02-15T04:11:21.738Z,17.38
2023-02-15T04:12:21.754Z,17.37
2023-02-15T04:13:21.816Z,17.35
2023-02-15T04:14:21.833Z,17.36
2023-02-15T04:15:21.863Z,17.33
2023-02-15T04:16:22.836Z,17.35
2023-02-15T04:17:21.926Z,17.31
2023-02-15T04:18:21.999Z,17.29
2023-02-15T04:19:22.014Z,17.28
2023-02-15T04:20:22.072Z,17.26
2023-02-15T04:21:22.084Z,17.28
2023-02-15T04:22:22.117Z,17.25
2023-02-15T04:23:22.179Z,17.25
2023-02-15T04:24:22.184Z,17.24
2023-02-15T04:25:22.229Z,17.22
2023-02-15T04:26:22.247Z,17.21
2023-02-15T04:27:22.296Z,17.21
2023-02-15T04:28:22.347Z,17.20
2023-02-15T04:29:22.372Z,17.20
2023-02-15T04:30:22.409Z,17.19
2023-02-15T04:31:22.536Z,17.18
2023-02-15T04:32:22.600Z,17.15
2023-02-15T04:33:22.552Z,17.15
2023-02-15T04:34:22.588Z,17.14
2023-02-15T04:35:22.563Z,17.12
2023-02-15T04:36:22.625Z,17.10
2023-02-15T04:37:22.634Z,17.10
2023-02-15T04:38:22.686Z,17.10
2023-02-15T04:39:22.695Z,17.11
2023-02-15T04:40:22.733Z,17.10
2023-02-15T04:41:22.760Z,17.09
2023-02-15T04:42:22.768Z,17.09
2023-02-15T04:43:22.766Z,17.08
2023-02-15T04:44:22.838Z,17.08
2023-02-15T04:45:22.830Z,17.08
2023-02-15T04:46:22.935Z,17.08
2023-02-15T04:47:22.931Z,17.07
2023-02-15T04:48:22.966Z,17.06
2023-02-15T04:49:22.976Z,17.04
2023-02-15T04:50:23.024Z,17.06
2023-02-15T04:51:23.102Z,17.07
2023-02-15T04:52:23.100Z,17.06
2023-02-15T04:53:23.144Z,17.07
2023-02-15T04:54:23.220Z,17.05
2023-02-15T04:55:23.238Z,17.05
2023-02-15T04:56:23.246Z,17.02
2023-02-15T04:57:23.300Z,17.06
2023-02-15T04:58:23.376Z,17.05
2023-02-15T04:59:23.389Z,17.03
2023-02-15T05:00:23.408Z,17.04
2023-02-15T05:01:23.489Z,17.04
2023-02-15T05:02:23.513Z,17.04
2023-02-15T05:03:23.503Z,17.05
2023-02-15T05:04:23.563Z,17.05
2023-02-15T05:05:23.545Z,17.05
2023-02-15T05:06:23.555Z,17.06
2023-02-15T05:07:23.580Z,17.05
2023-02-15T05:08:23.630Z,17.04
2023-02-15T05:09:23.632Z,17.05
2023-02-15T05:10:23.669Z,17.06
2023-02-15T05:11:23.670Z,17.06
2023-02-15T05:12:23.724Z,17.06
2023-02-15T05:13:23.738Z,17.07
2023-02-15T05:14:23.780Z,17.06
2023-02-15T05:15:23.814Z,17.05
2023-02-15T05:16:23.845Z,17.06
2023-02-15T05:17:23.870Z,17.06
2023-02-15T05:18:23.939Z,17.05
2023-02-15T05:19:23.992Z,17.06
2023-02-15T05:20:23.994Z,17.05
2023-02-15T05:21:24.044Z,17.06
2023-02-15T05:22:24.073Z,17.06
2023-02-15T05:23:24.054Z,17.07
2023-02-15T05:24:24.149Z,17.06
2023-02-15T05:25:24.117Z,17.07
2023-02-15T05:26:24.150Z,17.07
2023-02-15T05:27:24.195Z,17.06
2023-02-15T05:28:24.194Z,17.07
2023-02-15T05:29:24.354Z,17.06
2023-02-15T05:30:24.383Z,17.06
2023-02-15T05:31:24.527Z,17.09
2023-02-15T05:32:24.427Z,17.06
2023-02-15T05:33:24.349Z,17.06
2023-02-15T05:34:24.366Z,17.06
2023-02-15T05:35:25.303Z,17.07
2023-02-15T05:36:25.293Z,17.07
2023-02-15T05:37:24.416Z,17.06
2023-02-15T05:38:24.456Z,17.06
2023-02-15T05:39:24.466Z,17.05
2023-02-15T05:40:24.503Z,17.05
2023-02-15T05:41:24.558Z,17.04
2023-02-15T05:42:24.550Z,17.06
2023-02-15T05:43:24.680Z,17.05
2023-02-15T05:44:24.600Z,17.05
2023-02-15T05:45:24.638Z,17.05
2023-02-15T05:46:24.785Z,17.05
2023-02-15T05:47:24.702Z,17.07
2023-02-15T05:48:24.739Z,17.06
2023-02-15T05:49:24.801Z,17.03
2023-02-15T05:50:24.780Z,17.03
2023-02-15T05:51:24.786Z,17.04
2023-02-15T05:52:24.847Z,17.04
2023-02-15T05:53:24.869Z,17.02
2023-02-15T05:54:24.887Z,17.05
2023-02-15T05:55:24.914Z,17.04
2023-02-15T05:56:24.927Z,17.05
2023-02-15T05:57:24.966Z,17.05
2023-02-15T05:58:25.012Z,17.05
2023-02-15T05:59:25.039Z,17.04
2023-02-15T06:00:25.041Z,17.06
2023-02-15T06:02:44.738Z,17.07
2023-02-15T06:03:44.786Z,17.07
2023-02-15T06:04:44.641Z,17.06
2023-02-15T06:05:44.619Z,17.07
2023-02-15T06:06:44.593Z,17.06
2023-02-15T06:07:44.588Z,17.06
2023-02-15T06:08:44.576Z,17.06
2023-02-15T06:09:44.549Z,17.08
2023-02-15T06:10:44.550Z,17.06
2023-02-15T06:11:44.497Z,17.04
2023-02-15T06:12:44.490Z,17.03
2023-02-15T06:13:44.463Z,17.05
2023-02-15T06:14:44.402Z,17.04
2023-02-15T06:15:44.456Z,17.05
2023-02-15T06:16:44.375Z,17.04
2023-02-15T06:17:44.397Z,17.04
2023-02-15T06:18:44.333Z,17.05
2023-02-15T06:19:44.346Z,17.03
2023-02-15T06:20:44.317Z,17.04
2023-02-15T06:21:44.285Z,17.04
2023-02-15T06:22:44.272Z,17.02
2023-02-15T06:23:44.235Z,17.02
2023-02-15T06:24:44.206Z,17.02
2023-02-15T06:25:44.186Z,17.02
2023-02-15T06:26:44.149Z,17.02
2023-02-15T06:27:44.157Z,17.02
2023-02-15T06:28:44.130Z,17.01
2023-02-15T06:29:44.076Z,17.01
2023-02-15T06:30:44.097Z,17.01
2023-02-15T06:31:44.132Z,17.02
2023-02-15T06:32:44.018Z,17.02
2023-02-15T06:33:43.995Z,16.99
2023-02-15T06:34:43.962Z,16.98
2023-02-15T06:35:43.928Z,17.00
2023-02-15T06:36:43.909Z,17.01
2023-02-15T06:37:43.917Z,16.99
2023-02-15T06:38:43.869Z,16.98
2023-02-15T06:39:43.796Z,16.98
2023-02-15T06:40:43.781Z,16.99
2023-02-15T06:41:43.792Z,16.96
2023-02-15T06:42:43.751Z,16.98
2023-02-15T06:43:43.720Z,17.00
2023-02-15T06:44:43.689Z,16.97
2023-02-15T06:45:43.670Z,16.97
2023-02-15T06:46:43.660Z,16.99
2023-02-15T06:47:43.597Z,16.99
2023-02-15T06:48:43.603Z,16.98
2023-02-15T06:49:43.525Z,16.98
2023-02-15T06:50:43.520Z,16.97
2023-02-15T06:51:43.502Z,16.95
2023-02-15T06:52:43.475Z,16.96
2023-02-15T06:53:43.468Z,16.97
2023-02-15T06:54:43.416Z,16.97
2023-02-15T06:55:43.369Z,16.95
2023-02-15T06:56:43.343Z,16.96
2023-02-15T06:57:43.298Z,16.95
2023-02-15T06:58:43.286Z,16.95
2023-02-15T06:59:43.255Z,16.95
2023-02-15T07:00:43.273Z,16.95
2023-02-15T07:01:43.265Z,16.94
2023-02-15T07:02:43.208Z,16.94
2023-02-15T07:03:43.189Z,16.96
2023-02-15T07:04:43.135Z,16.94
2023-02-15T07:05:43.121Z,16.95
2023-02-15T07:06:43.048Z,16.95
2023-02-15T07:07:43.040Z,16.94
2023-02-15T07:08:43.039Z,16.92
2023-02-15T07:09:43.042Z,16.91
2023-02-15T07:10:43.039Z,16.94
2023-02-15T07:11:43.052Z,16.92
2023-02-15T07:12:43.086Z,16.95
2023-02-15T07:13:43.063Z,16.91
2023-02-15T07:14:43.072Z,16.90
2023-02-15T07:15:43.076Z,16.93
2023-02-15T07:16:43.066Z,16.94
2023-02-15T07:17:43.079Z,16.94
2023-02-15T07:18:43.073Z,16.93
2023-02-15T07:19:43.093Z,16.93
2023-02-15T07:20:43.109Z,16.92
2023-02-15T07:21:43.101Z,16.91
2023-02-15T07:22:43.116Z,16.91
2023-02-15T07:23:43.103Z,16.90
2023-02-15T07:24:43.128Z,16.90
2023-02-15T07:25:43.169Z,16.89
2023-02-15T07:26:43.157Z,16.87
2023-02-15T07:27:43.200Z,16.89
2023-02-15T07:28:43.146Z,16.89
2023-02-15T07:29:43.152Z,16.89
2023-02-15T07:30:43.176Z,16.89
2023-02-15T07:31:43.163Z,16.88
2023-02-15T07:32:43.352Z,16.90
2023-02-15T07:33:43.211Z,16.89
2023-02-15T07:34:43.197Z,16.90
2023-02-15T07:35:43.155Z,16.89
2023-02-15T07:36:43.182Z,16.89
2023-02-15T07:37:43.193Z,16.88
2023-02-15T07:38:43.153Z,16.88
2023-02-15T07:39:43.136Z,16.90
2023-02-15T07:40:43.184Z,16.89
2023-02-15T07:41:43.164Z,16.90
2023-02-15T07:42:43.199Z,16.91
2023-02-15T07:43:43.185Z,16.92
2023-02-15T07:44:43.180Z,16.91
2023-02-15T07:45:43.215Z,16.88
2023-02-15T07:46:43.222Z,16.91
2023-02-15T07:47:43.163Z,16.92
2023-02-15T07:48:43.237Z,16.91
2023-02-15T07:49:43.204Z,16.91
2023-02-15T07:50:43.181Z,16.91
2023-02-15T07:51:43.152Z,16.91
2023-02-15T07:52:43.205Z,16.92
2023-02-15T07:53:43.311Z,16.92
2023-02-15T07:54:43.167Z,16.93
2023-02-15T07:55:43.171Z,16.91
2023-02-15T07:56:43.150Z,16.95
2023-02-15T07:57:43.179Z,16.95
2023-02-15T07:58:43.167Z,16.95
2023-02-15T07:59:43.155Z,16.94
2023-02-15T08:00:43.182Z,16.95
2023-02-15T08:01:43.162Z,16.95
2023-02-15T08:02:43.238Z,16.96
2023-02-15T08:03:43.230Z,16.96
2023-02-15T08:04:43.190Z,16.95
2023-02-15T08:05:43.137Z,16.97
2023-02-15T08:06:43.153Z,16.96
2023-02-15T08:07:43.168Z,17.00
2023-02-15T08:08:43.138Z,16.98
2023-02-15T08:09:43.154Z,16.98
2023-02-15T08:10:43.142Z,17.01
2023-02-15T08:11:43.128Z,17.01
2023-02-15T08:12:43.144Z,17.00
2023-02-15T08:13:43.549Z,16.99
2023-02-15T08:14:43.150Z,16.99
2023-02-15T08:15:43.119Z,17.00
2023-02-15T08:16:43.251Z,16.98
2023-02-15T08:17:43.110Z,16.97
2023-02-15T08:18:43.076Z,16.99
2023-02-15T08:19:43.115Z,16.99
2023-02-15T08:20:43.089Z,16.97
2023-02-15T08:21:43.120Z,16.98
2023-02-15T08:22:43.099Z,16.96
2023-02-15T08:23:43.138Z,16.97
2023-02-15T08:24:43.113Z,16.99
2023-02-15T08:25:43.128Z,16.95
2023-02-15T08:26:43.119Z,16.94
2023-02-15T08:27:43.109Z,16.92
2023-02-15T08:28:43.156Z,16.94
2023-02-15T08:29:43.213Z,16.92
2023-02-15T08:30:43.115Z,16.92
2023-02-15T08:31:43.246Z,16.93
2023-02-15T08:32:43.094Z,16.93
2023-02-15T08:33:43.100Z,16.90
2023-02-15T08:34:43.115Z,16.90
2023-02-15T08:35:43.052Z,16.91
2023-02-15T08:36:43.051Z,16.95
2023-02-15T08:37:43.044Z,16.95
2023-02-15T08:38:43.046Z,16.93
2023-02-15T08:39:43.029Z,16.91
2023-02-15T08:40:43.029Z,16.91
2023-02-15T08:41:43.028Z,16.91
2023-02-15T08:42:43.035Z,16.90
2023-02-15T08:43:43.014Z,16.89
2023-02-15T08:44:42.971Z,16.90
2023-02-15T08:45:43.016Z,16.91
2023-02-15T08:46:42.999Z,16.88
2023-02-15T08:47:42.997Z,16.89
2023-02-15T08:48:43.011Z,16.89
2023-02-15T08:49:42.989Z,16.89
2023-02-15T08:50:43.016Z,16.88
2023-02-15T08:51:42.958Z,16.87
2023-02-15T08:52:42.993Z,16.88
2023-02-15T08:53:43.015Z,16.87
2023-02-15T08:54:42.964Z,16.85
2023-02-15T08:55:42.991Z,16.86
2023-02-15T08:56:43.002Z,16.87
2023-02-15T08:57:43.006Z,16.87
2023-02-15T08:58:43.032Z,16.87
2023-02-15T08:59:42.984Z,16.84
2023-02-15T09:00:43.026Z,16.85
2023-02-15T09:01:43.024Z,16.86
2023-02-15T09:02:42.988Z,16.85
2023-02-15T09:03:43.007Z,16.84
2023-02-15T09:04:43.034Z,16.85
2023-02-15T09:05:42.988Z,16.84
2023-02-15T09:06:43.002Z,16.83
2023-02-15T09:07:43.001Z,16.84
2023-02-15T09:08:42.973Z,16.83
2023-02-15T09:09:42.956Z,16.84
2023-02-15T09:10:42.968Z,16.82
2023-02-15T09:11:42.955Z,16.86
2023-02-15T09:12:42.935Z,16.84
2023-02-15T09:13:42.974Z,16.83
2023-02-15T09:14:42.931Z,16.83
2023-02-15T09:15:42.920Z,16.85
2023-02-15T09:16:42.949Z,16.83
2023-02-15T09:17:42.926Z,16.86
2023-02-15T09:18:42.874Z,16.83
2023-02-15T09:19:42.890Z,16.83
2023-02-15T09:20:42.861Z,16.84
2023-02-15T09:21:42.895Z,16.83
2023-02-15T09:22:42.845Z,16.84
2023-02-15T09:23:42.840Z,16.83
2023-02-15T09:24:42.805Z,16.82
2023-02-15T09:25:42.806Z,16.82
2023-02-15T09:26:42.841Z,16.80
2023-02-15T09:27:42.825Z,16.81
2023-02-15T09:28:42.789Z,16.82
2023-02-15T09:29:42.790Z,16.83
2023-02-15T09:30:42.823Z,16.84
2023-02-15T09:31:42.790Z,16.85
2023-02-15T09:32:42.762Z,16.83
2023-02-15T09:33:42.772Z,16.86
2023-02-15T09:34:42.786Z,16.87
2023-02-15T09:35:42.712Z,16.86
2023-02-15T09:36:42.697Z,16.83
2023-02-15T09:37:42.693Z,16.86
2023-02-15T09:38:42.699Z,16.83
2023-02-15T09:39:42.780Z,16.85
2023-02-15T09:40:42.676Z,16.85
2023-02-15T09:41:42.666Z,16.83
2023-02-15T09:42:42.672Z,16.82
2023-02-15T09:43:42.695Z,16.86
2023-02-15T09:44:42.642Z,16.86
2023-02-15T09:45:42.675Z,16.86
2023-02-15T09:46:42.643Z,16.85
2023-02-15T09:47:42.683Z,16.85
2023-02-15T09:48:42.615Z,16.83
2023-02-15T09:49:42.623Z,16.84
2023-02-15T09:50:42.598Z,16.82
2023-02-15T09:51:42.571Z,16.82
2023-02-15T09:52:42.590Z,16.80
2023-02-15T09:53:42.539Z,16.80
2023-02-15T09:54:42.556Z,16.81
2023-02-15T09:55:42.555Z,16.80
2023-02-15T09:56:42.512Z,16.79
2023-02-15T09:58:42.554Z,16.79
2023-02-15T10:04:42.508Z,16.77
2023-02-15T10:05:42.407Z,16.77
2023-02-15T10:06:42.424Z,16.76
2023-02-15T10:07:42.447Z,16.76
2023-02-15T10:08:42.449Z,16.75
2023-02-15T10:09:42.372Z,16.79
2023-02-15T10:10:42.379Z,16.73
2023-02-15T10:11:42.373Z,16.73
2023-02-15T10:12:42.384Z,16.73
2023-02-15T10:13:42.457Z,16.74
2023-02-15T10:14:42.366Z,16.73
2023-02-15T10:15:42.376Z,16.72
2023-02-15T10:16:42.464Z,16.72
2023-02-15T10:17:42.400Z,16.70
2023-02-15T10:18:42.422Z,16.69
2023-02-15T10:19:42.419Z,16.69
2023-02-15T10:40:42.417Z,16.73
2023-02-15T10:41:42.414Z,16.72
2023-02-15T10:42:42.388Z,16.74
2023-02-15T10:43:42.530Z,16.74
2023-02-15T10:44:42.416Z,16.72
2023-02-15T10:45:42.454Z,16.76
2023-02-15T10:46:42.409Z,16.76
2023-02-15T10:47:42.443Z,16.78
2023-02-15T10:48:42.421Z,16.79
2023-02-15T10:49:42.434Z,16.76
2023-02-15T10:50:42.419Z,16.76
2023-02-15T10:51:42.398Z,16.78
2023-02-15T10:52:42.414Z,16.79
2023-02-15T10:53:42.443Z,16.80
2023-02-15T10:54:42.434Z,16.79
2023-02-15T10:55:42.466Z,16.79
2023-02-15T10:56:42.425Z,16.80
2023-02-15T10:57:42.471Z,16.82
2023-02-15T10:58:42.451Z,16.83
2023-02-15T10:59:42.450Z,16.81
2023-02-15T11:00:42.452Z,16.81
2023-02-15T11:01:42.534Z,16.81
2023-02-15T11:02:42.477Z,16.82
2023-02-15T11:03:42.507Z,16.80
2023-02-15T11:04:42.500Z,16.77
2023-02-15T11:05:42.458Z,16.79
2023-02-15T11:06:42.455Z,16.80
2023-02-15T11:07:42.470Z,16.79
2023-02-15T11:08:42.497Z,16.81
2023-02-15T11:09:42.471Z,16.81
2023-02-15T11:10:42.437Z,16.77
2023-02-15T11:11:42.467Z,16.77
2023-02-15T11:20:42.475Z,16.69
2023-02-15T11:30:42.523Z,16.65
2023-02-15T11:31:42.679Z,16.66
2023-02-15T11:32:42.502Z,16.66
2023-02-15T11:33:42.657Z,16.64
2023-02-15T11:34:42.465Z,16.63
2023-02-15T11:35:42.486Z,16.62
2023-02-15T11:36:42.488Z,16.60
2023-02-15T11:37:42.492Z,16.61
2023-02-15T12:35:42.650Z,16.36
2023-02-15T12:36:42.627Z,16.33
2023-02-15T12:37:42.620Z,16.33
2023-02-15T12:38:42.641Z,16.31
2023-02-15T12:39:42.661Z,16.32
2023-02-15T12:40:42.653Z,16.33
2023-02-15T12:41:42.667Z,16.32
2023-02-15T12:42:42.661Z,16.32
2023-02-15T12:43:42.680Z,16.33
2023-02-15T12:44:42.691Z,16.31
2023-02-15T12:45:42.681Z,16.28
2023-02-15T12:46:42.711Z,16.31
2023-02-15T12:47:42.674Z,16.29
2023-02-15T12:48:42.710Z,16.26
2023-02-15T12:49:47.589Z,16.26
2023-02-15T12:50:43.678Z,16.28
2023-02-15T12:51:43.182Z,16.26
2023-02-15T12:52:42.558Z,16.25
2023-02-15T12:53:44.966Z,16.24
2023-02-15T12:54:42.705Z,16.26
2023-02-15T12:55:45.382Z,16.23
2023-02-15T12:56:42.631Z,16.23
2023-02-15T12:57:42.638Z,16.29
2023-02-15T12:58:42.548Z,16.24
2023-02-15T12:59:44.660Z,16.23
2023-02-15T13:00:42.519Z,16.24
2023-02-15T13:01:42.476Z,16.23
2023-02-15T13:02:42.398Z,16.23
2023-02-15T13:03:42.374Z,16.21
2023-02-15T13:04:42.321Z,16.20
2023-02-15T13:05:44.209Z,16.23
2023-02-15T13:06:42.214Z,16.21
2023-02-15T13:07:42.203Z,16.22
2023-02-15T13:08:42.171Z,16.20
2023-02-15T13:09:43.121Z,16.18
2023-02-15T13:10:42.101Z,16.19
2023-02-15T13:11:42.038Z,16.19
2023-02-15T13:12:42.027Z,16.21
2023-02-15T13:13:41.978Z,16.18
2023-02-15T13:14:41.937Z,16.20
2023-02-15T13:15:41.900Z,16.17
2023-02-15T13:16:41.940Z,16.20
2023-02-15T13:17:41.856Z,16.20
2023-02-15T13:18:41.822Z,16.18
2023-02-15T13:19:41.768Z,16.18
2023-02-15T13:20:41.738Z,16.17
2023-02-15T13:21:41.740Z,16.18
2023-02-15T13:22:41.691Z,16.19
2023-02-15T13:23:41.607Z,16.22
2023-02-15T13:24:41.594Z,16.16
2023-02-15T13:25:41.553Z,16.19
2023-02-15T13:26:41.505Z,16.16
2023-02-15T13:27:41.505Z,16.15
2023-02-15T13:28:41.451Z,16.18
2023-02-15T13:29:41.441Z,16.20
2023-02-15T13:30:41.376Z,16.18
2023-02-15T13:31:41.441Z,16.15
2023-02-15T13:32:41.262Z,16.17
2023-02-15T13:33:41.237Z,16.18
2023-02-15T13:34:41.195Z,16.17
2023-02-15T13:35:41.172Z,16.16
2023-02-15T13:36:41.132Z,16.15
2023-02-15T13:37:41.091Z,16.16
2023-02-15T13:38:41.080Z,16.14
2023-02-15T13:39:41.115Z,16.15
2023-02-15T13:40:41.117Z,16.16
2023-02-15T13:41:41.045Z,16.16
2023-02-15T13:42:41.050Z,16.21
2023-02-15T13:43:41.082Z,16.18
2023-02-15T13:44:41.077Z,16.16
2023-02-15T13:45:41.138Z,16.17
2023-02-15T13:46:43.147Z,16.16
2023-02-15T13:47:41.076Z,16.16
2023-02-15T13:48:48.445Z,16.14
2023-02-15T13:49:41.981Z,16.13
2023-02-15T13:50:40.956Z,16.14
2023-02-15T13:51:40.935Z,16.14
2023-02-15T13:52:40.867Z,16.16
2023-02-15T13:53:40.869Z,16.14
2023-02-15T13:54:40.811Z,16.19
2023-02-15T13:55:40.785Z,16.14
2023-02-15T13:56:40.728Z,16.15
2023-02-15T13:57:40.670Z,16.14
2023-02-15T13:58:40.674Z,16.14
2023-02-15T14:00:40.710Z,16.13
2023-02-15T14:02:40.632Z,16.11
2023-02-15T14:03:40.746Z,16.15
2023-02-15T14:04:40.652Z,16.11
2023-02-15T14:05:40.657Z,16.11
2023-02-15T14:06:40.765Z,16.10
2023-02-15T14:07:40.714Z,16.11
2023-02-15T14:08:40.671Z,16.10
2023-02-15T14:09:40.712Z,16.13
2023-02-15T14:10:40.739Z,16.11
2023-02-15T14:11:40.723Z,16.08
2023-02-15T14:12:40.750Z,16.12
2023-02-15T14:13:40.777Z,16.12
2023-02-15T14:14:40.771Z,16.11
2023-02-15T14:15:40.814Z,16.09
2023-02-15T14:16:40.831Z,16.09
2023-02-15T14:17:40.843Z,16.07
2023-02-15T14:18:40.818Z,16.11
2023-02-15T14:19:40.831Z,16.10
2023-02-15T14:20:40.882Z,16.09
2023-02-15T14:21:40.906Z,16.08
2023-02-15T14:22:41.294Z,16.09
2023-02-15T14:23:40.934Z,16.08
2023-02-15T14:24:41.851Z,16.08
2023-02-15T14:25:41.000Z,16.09
2023-02-15T14:26:40.950Z,16.12
2023-02-15T14:27:40.993Z,16.09
2023-02-15T14:28:40.989Z,16.08
2023-02-15T15:14:42.685Z,16.10
2023-02-15T16:06:42.644Z,16.60
2023-02-15T16:07:42.648Z,16.47
2023-02-15T16:08:42.677Z,16.54
2023-02-15T16:09:42.706Z,16.60
2023-02-15T16:10:42.724Z,16.63
2023-02-15T16:11:42.723Z,16.45
2023-02-15T16:12:42.748Z,16.56
2023-02-15T16:13:42.812Z,16.52
2023-02-15T16:14:42.803Z,16.65
2023-02-15T16:15:42.913Z,16.63
2023-02-15T16:16:42.864Z,16.63
2023-02-15T16:17:42.860Z,16.67
2023-02-15T16:18:42.844Z,16.65
2023-02-15T16:19:42.892Z,16.69
2023-02-15T16:20:42.905Z,16.67
2023-02-15T16:21:42.961Z,16.69
2023-02-15T16:22:42.935Z,16.66
2023-02-15T16:23:42.996Z,16.74
2023-02-15T16:24:42.981Z,16.74